METAR és
SPECI
METAR LHBP 240230Z VRB03KT 5000 BR SCT002 BKN005 15/15 Q1013 NOSIG=
METAR LHBP 240200Z VRB03KT 6000 BKN004 14/14 Q1013 NOSIG=
METAR LHBP 240130Z VRB01KT 7000 BKN006 14/14 Q1013 BECMG 5000 MIFG BKN004=
METAR LHBP 240100Z VRB03KT 7000 MIFG BKN006 13/13 Q1013 BECMG 5000 MIFG BKN004=
METAR LHBP 240030Z VRB02KT 7000 MIFG SCT006 12/12 Q1013 BECMG 5000 MIFG BKN004=
METAR LHBP 240000Z VRB02KT 7000 MIFG SCT006 12/11 Q1013 BECMG 5000 MIFG BKN004=
TAF
TAF AMD LHBP 240110Z 2401/2424 VRB03KT 5000 BR BKN013 TEMPO 2401/2406 1400 MIFG BR BKN004 BECMG 2406/2408 34007KT 9999 SCT033 BECMG 2412/2414 CAVOK=
GAMET
Nincs érvényes távirat! 
FAHU41 LHBM 231100
LHCC GAMET VALID 231200/231800 LHBP-
LHCC BUDAPEST FIR BLW FL100
SECN I
SIGWX: 12/15 EMBD TS N OF LINE N4629 E02116 - N4740 E01700
12/15 ISOL TS S OF LINE N4629 E02116 - N4740 E01700
15/18 EMBD TS E OF LINE N4629 E02116 - N4804 E01907
15/18 ISOL TS W OF LINE N4629 E02116 - N4804 E01907
SIG CLD: 12/15 BKN 500-1000/1300-1800 FT AGL N OF N4700 AND
W OF E02000
12/15 EMBD TCU CB 1500-3000/XXX FT AGL N OF LINE N4629
E02116 - N4740 E01700
12/15 ISOL TCU CB 1500-3000/XXX FT AGL S OF LINE N4629
E02116 - N4740 E01700
15/18 EMBD TCU CB 1500-3000/XXX FT AGL N OF LINE N4629
E02116 - N4804 E01907
15/18 ISOL TCU CB 150-3000 FT AGL W OF LINE N4629
E02116 - N4804 E01907
TURB: 12/15 MOD SFC/2000 FT AMSL N OF N4700 AND W OF E01655
SIGMETS APPLICABLE: NIL=
OMSZ: 2015. május 23. 13:02 (11:02  UTC)
[FAHU41]
AIRMET
Nincs érvényes távirat! 
WAHU41 LHBM 210600
LHCC AIRMET 01 VALID 210600/210900 LHBP-
LHCC BUDAPEST FIR ISOL TS AND ISOL CB 4000/XXXFT AGL
OBS AND FCST E OF E01930 AND N OF N4730 MOV NNE NC=
OMSZ: 2015. május 21. 08:02 (06:02  UTC)
[WAHU41]
SIGMET
Nincs érvényes távirat! 
WSHU31 LHBM 230515
LHCC SIGMET 03 VALID 230515/230715 LHBP-
LHCC BUDAPEST FIR EMBD TS OBS ENTIRE FIRE TOP FL300 MOV NNW
NC=
OMSZ: 2015. május 23. 07:08 (05:08  UTC)
[WSHU31]
SIGMET
Vulkáni hamufelhő
Nincs érvényes távirat! 
WVHU31 LHBM 271515 CCA
LHCC SIGMET 03 VALID 271515/271800 LHBP-
LHCC BUDAPEST FIR EXERCISE VOLCEX12/01
CNL VA SIGMET 02 271200/271800
EXERCISE EXERCISE EXERCISE VOLCEX12/01=
OMSZ: 2015. április 14. 15:15 (13:15  UTC)
[WVHU31]